Blissfield, Ohio
Current Conditions -  °F | °C
As of 2:16 PM on Tuesday 21 Oct 2014 (Local Time) from K4I3 Reporting Station
Broken Clouds Broken Clouds  
Wind Chill: 50°   Ceiling: 1700
Heat Index: 50°   Visibility: 10mi
Dew Point: 46°   Wind: 13mph
Humidity: 87%   Direction: 330°NNW
Pressure: 29.97"   Gusts: 20mph
Location:  40.4°N, 81.97°W
Report Text: K4I3 211816Z AUTO 33011G17KT 10SM SCT010 BKN017 BKN027 10/08 A2997 RMK AO2
Loading
Personal Weather Stations






























Interactive Weather Map
Tropical Storm Tracking
New forecast layout! Learn more

10-Day Weather Forecast

Advertisements
Track Severe Weather on mobile